Time;durP1;ratioP1;P1;durP2;ratioP2;P2;SDS_P1;SDS_P2;PMS_P1;PMS_P2;Temp;Humidity;BMP_temperature;BMP_pressure;BME280_temperature;BME280_humidity;BME280_pressure;Samples;Min_cycle;Max_cycle;Signal;HPM_P1;HPM_P2
2022/05/20 00:01:28;;;;;;;18.45;10.45;;;;;;;;;;7330115;19;161976;-18
2022/05/20 00:03:59;;;;;;;17.55;10.80;;;;;;;;;;7329811;19;162477;-18
2022/05/20 00:06:30;;;;;;;17.98;10.55;;;;;;;;;;7331508;19;153980;-18
2022/05/20 00:09:02;;;;;;;17.58;9.77;;;;;;;;;;7328043;19;153938;-17
2022/05/20 00:11:34;;;;;;;16.92;10.40;;;;;;;;;;7334664;19;161678;-18
2022/05/20 00:14:08;;;;;;;17.75;10.32;;;;;;;;;;7333129;19;162708;-18
2022/05/20 00:16:39;;;;;;;16.38;10.20;;;;;;;;;;7331906;19;153964;-18
2022/05/20 00:19:11;;;;;;;16.10;10.07;;;;;;;;;;7334901;19;153355;-18
2022/05/20 00:21:44;;;;;;;18.63;10.38;;;;;;;;;;7333183;19;161889;-17
2022/05/20 00:24:15;;;;;;;14.07;9.50;;;;;;;;;;7330385;19;162397;-18
2022/05/20 00:26:47;;;;;;;18.48;10.90;;;;;;;;;;7330813;19;154048;-18
2022/05/20 00:29:21;;;;;;;18.65;9.75;;;;;;;;;;7334412;19;153678;-17
2022/05/20 00:31:52;;;;;;;15.70;9.15;;;;;;;;;;7329658;19;161997;-17
2022/05/20 00:34:23;;;;;;;16.58;9.70;;;;;;;;;;7334460;19;162382;-18
2022/05/20 00:36:55;;;;;;;14.93;9.63;;;;;;;;;;7329519;19;154167;-18
2022/05/20 00:39:26;;;;;;;14.55;9.02;;;;;;;;;;7330807;19;153685;-18
2022/05/20 00:41:57;;;;;;;15.55;9.65;;;;;;;;;;7330256;19;162003;-18
2022/05/20 00:44:32;;;;;;;16.60;9.77;;;;;;;;;;7333551;19;162476;-18
2022/05/20 00:47:03;;;;;;;17.20;10.23;;;;;;;;;;7331511;19;154061;-18
2022/05/20 00:49:37;;;;;;;14.25;8.20;;;;;;;;;;7328158;19;153391;-18
2022/05/20 00:52:11;;;;;;;12.90;6.40;;;;;;;;;;7328399;19;161772;-18
2022/05/20 00:54:47;;;;;;;13.35;7.57;;;;;;;;;;7329709;19;162784;-17
2022/05/20 00:57:23;;;;;;;11.55;6.32;;;;;;;;;;7330370;19;154290;-18
2022/05/20 01:00:00;;;;;;;14.45;7.00;;;;;;;;;;7329978;19;153847;-19
2022/05/20 01:02:34;;;;;;;11.95;6.72;;;;;;;;;;7329731;19;162131;-18
2022/05/20 01:05:13;;;;;;;13.40;6.63;;;;;;;;;;7329707;19;162267;-17
2022/05/20 01:07:45;;;;;;;11.90;7.18;;;;;;;;;;7329705;19;154079;-18
2022/05/20 01:10:17;;;;;;;13.10;6.97;;;;;;;;;;7328654;19;153800;-17
2022/05/20 01:12:48;;;;;;;10.73;6.88;;;;;;;;;;7329547;19;161716;-18
2022/05/20 01:15:22;;;;;;;12.90;7.22;;;;;;;;;;7329347;19;162548;-18
2022/05/20 01:17:57;;;;;;;9.13;6.13;;;;;;;;;;7329834;19;154012;-18
2022/05/20 01:20:31;;;;;;;9.85;6.35;;;;;;;;;;7329628;19;153645;-18
2022/05/20 01:23:10;;;;;;;10.98;6.70;;;;;;;;;;7327995;19;162096;-18
2022/05/20 01:25:44;;;;;;;9.15;6.07;;;;;;;;;;7329038;19;162481;-18
2022/05/20 01:28:16;;;;;;;12.13;7.15;;;;;;;;;;7329210;19;154212;-18
2022/05/20 01:30:51;;;;;;;7.77;5.90;;;;;;;;;;7331273;19;153573;-18
2022/05/20 01:33:26;;;;;;;12.88;6.72;;;;;;;;;;7327808;19;161928;-18
2022/05/20 01:35:57;;;;;;;10.82;6.60;;;;;;;;;;7328651;19;162665;-18
2022/05/20 01:38:31;;;;;;;8.05;5.78;;;;;;;;;;7329645;19;154420;-18
2022/05/20 01:41:06;;;;;;;10.27;6.88;;;;;;;;;;7328932;19;153466;-18
2022/05/20 01:43:46;;;;;;;10.45;6.43;;;;;;;;;;7327375;19;162076;-17
2022/05/20 01:46:35;;;;;;;10.23;5.90;;;;;;;;;;7327303;19;162554;-17
2022/05/20 01:49:18;;;;;;;8.13;5.72;;;;;;;;;;7327670;19;154017;-17
2022/05/20 01:51:54;;;;;;;9.35;6.43;;;;;;;;;;7326006;19;153473;-16
2022/05/20 01:54:38;;;;;;;10.52;6.38;;;;;;;;;;7328342;19;162026;-17
2022/05/20 01:57:13;;;;;;;7.80;5.32;;;;;;;;;;7328177;19;162500;-17
2022/05/20 01:59:49;;;;;;;9.30;6.18;;;;;;;;;;7327302;19;154157;-17
2022/05/20 02:02:27;;;;;;;8.93;6.35;;;;;;;;;;7328320;19;153623;-17
2022/05/20 02:05:05;;;;;;;9.70;6.32;;;;;;;;;;7327774;19;161734;-17
2022/05/20 02:07:39;;;;;;;8.23;5.78;;;;;;;;;;7327695;19;162560;-17
2022/05/20 02:10:18;;;;;;;8.43;5.55;;;;;;;;;;7327618;19;153999;-17
2022/05/20 02:12:53;;;;;;;9.90;6.10;;;;;;;;;;7328194;19;153505;-18
2022/05/20 02:15:28;;;;;;;9.55;5.85;;;;;;;;;;7327660;19;161598;-18
2022/05/20 02:18:02;;;;;;;9.75;5.97;;;;;;;;;;7327531;19;162662;-17
2022/05/20 02:20:37;;;;;;;9.52;5.75;;;;;;;;;;7327983;19;154150;-17
2022/05/20 02:23:12;;;;;;;11.43;6.10;;;;;;;;;;7327800;19;153540;-18
2022/05/20 02:25:50;;;;;;;9.50;6.05;;;;;;;;;;7326210;19;161827;-17
2022/05/20 02:28:25;;;;;;;9.43;5.78;;;;;;;;;;7327219;19;162401;-17
2022/05/20 02:30:58;;;;;;;9.70;5.68;;;;;;;;;;7326679;19;154133;-17
2022/05/20 02:33:30;;;;;;;8.07;5.45;;;;;;;;;;7327648;19;153568;-17
2022/05/20 02:36:06;;;;;;;7.33;5.57;;;;;;;;;;7327074;19;162652;-17
2022/05/20 02:38:38;;;;;;;7.20;5.25;;;;;;;;;;7327041;19;162421;-17
2022/05/20 02:41:12;;;;;;;11.27;5.90;;;;;;;;;;7327366;19;154033;-17
2022/05/20 02:43:43;;;;;;;10.07;5.95;;;;;;;;;;7328623;19;153534;-16
2022/05/20 02:46:15;;;;;;;8.93;5.30;;;;;;;;;;7333812;19;161703;-16
2022/05/20 02:48:47;;;;;;;10.18;5.57;;;;;;;;;;7332459;19;162576;-16
2022/05/20 02:51:18;;;;;;;8.45;5.38;;;;;;;;;;7332912;19;154199;-17
2022/05/20 02:53:49;;;;;;;7.55;5.57;;;;;;;;;;7334007;19;153339;-16
2022/05/20 02:56:23;;;;;;;9.15;5.72;;;;;;;;;;7333626;19;161959;-16
2022/05/20 03:04:25;;;;;;;9.02;5.68;;;;;;;;;;7332497;19;153603;-17
2022/05/20 03:06:56;;;;;;;7.90;5.65;;;;;;;;;;7333226;19;162178;-17
2022/05/20 03:09:28;;;;;;;8.38;5.75;;;;;;;;;;7331155;19;162352;-17
2022/05/20 03:12:02;;;;;;;7.30;5.75;;;;;;;;;;7330716;19;154158;-17
2022/05/20 03:14:34;;;;;;;10.25;6.07;;;;;;;;;;7333270;19;153551;-17
2022/05/20 03:17:07;;;;;;;6.80;5.57;;;;;;;;;;7332888;19;161900;-18
2022/05/20 03:19:39;;;;;;;11.45;6.22;;;;;;;;;;7332721;19;162351;-17
2022/05/20 03:22:11;;;;;;;9.23;5.87;;;;;;;;;;7332652;19;154076;-17
2022/05/20 03:24:43;;;;;;;;;;;;;;;;;;7332310;19;153680;-18
2022/05/20 03:27:19;;;;;;;8.93;5.80;;;;;;;;;;7332921;19;162155;-18
2022/05/20 03:29:50;;;;;;;6.95;5.15;;;;;;;;;;7332427;19;162507;-16
2022/05/20 03:32:22;;;;;;;7.60;5.32;;;;;;;;;;7330991;19;154176;-17
2022/05/20 03:34:53;;;;;;;6.13;5.35;;;;;;;;;;7332869;19;153470;-18
2022/05/20 03:37:24;;;;;;;6.28;5.10;;;;;;;;;;7333268;19;161915;-16
2022/05/20 03:39:56;;;;;;;7.55;5.38;;;;;;;;;;7332291;19;162326;-17
2022/05/20 03:42:30;;;;;;;7.00;5.57;;;;;;;;;;7332689;19;154132;-17
2022/05/20 03:45:01;;;;;;;7.57;5.00;;;;;;;;;;7332736;19;153634;-16
2022/05/20 03:47:32;;;;;;;9.10;5.60;;;;;;;;;;7332112;19;161720;-17
2022/05/20 03:50:04;;;;;;;7.10;5.05;;;;;;;;;;7331916;19;162580;-17
2022/05/20 03:52:36;;;;;;;6.47;4.93;;;;;;;;;;7330578;19;153996;-17
2022/05/20 03:55:09;;;;;;;6.25;4.78;;;;;;;;;;7331086;19;153793;-17
2022/05/20 03:57:43;;;;;;;6.15;4.85;;;;;;;;;;7331782;19;163335;-18
2022/05/20 04:00:16;;;;;;;7.30;5.38;;;;;;;;;;7331518;19;162678;-16
2022/05/20 04:02:44;;;;;;;;;;;;;;;;;;7332608;19;154186;-17
2022/05/20 04:05:16;;;;;;;8.15;5.45;;;;;;;;;;7332057;19;153465;-17
2022/05/20 04:07:47;;;;;;;6.22;5.00;;;;;;;;;;7331167;19;161825;-17
2022/05/20 04:10:18;;;;;;;5.70;4.75;;;;;;;;;;7331320;19;162484;-16
2022/05/20 04:12:53;;;;;;;6.68;5.47;;;;;;;;;;7329758;19;154125;-19
2022/05/20 04:15:24;;;;;;;7.57;5.07;;;;;;;;;;7331793;19;153526;-16
2022/05/20 04:17:56;;;;;;;8.13;5.55;;;;;;;;;;7331146;19;162005;-16
2022/05/20 04:20:28;;;;;;;6.97;5.22;;;;;;;;;;7331059;19;162370;-16
2022/05/20 04:22:59;;;;;;;6.85;4.93;;;;;;;;;;7331193;19;154038;-19
2022/05/20 04:25:30;;;;;;;5.60;4.63;;;;;;;;;;7331293;19;153790;-18
2022/05/20 04:28:05;;;;;;;7.03;4.72;;;;;;;;;;7330874;19;161925;-19
2022/05/20 04:30:36;;;;;;;7.60;5.13;;;;;;;;;;7330987;19;162399;-19
2022/05/20 04:33:07;;;;;;;6.43;4.75;;;;;;;;;;7329209;19;154193;-18
2022/05/20 04:35:39;;;;;;;5.18;4.57;;;;;;;;;;7330797;19;153558;-18
2022/05/20 04:38:10;;;;;;;4.90;4.22;;;;;;;;;;7330844;19;161830;-17
2022/05/20 04:40:42;;;;;;;6.47;5.03;;;;;;;;;;7330782;19;162637;-17
2022/05/20 04:48:47;;;;;;;6.63;5.00;;;;;;;;;;7330337;19;162005;-17
2022/05/20 04:51:18;;;;;;;5.18;4.53;;;;;;;;;;7330247;19;162176;-18
2022/05/20 04:56:33;;;;;;;6.55;4.50;;;;;;;;;;7330435;19;153501;-17
2022/05/20 04:59:07;;;;;;;7.05;4.78;;;;;;;;;;7328950;19;161763;-18
2022/05/20 05:01:39;;;;;;;7.15;4.93;;;;;;;;;;7330202;19;162312;-18
2022/05/20 05:04:10;;;;;;;;;;;;;;;;;;7330766;19;154024;-17
2022/05/20 05:06:42;;;;;;;5.38;4.68;;;;;;;;;;7331432;19;153913;-17
2022/05/20 05:09:13;;;;;;;6.30;5.03;;;;;;;;;;7327217;19;162308;-17
2022/05/20 05:11:45;;;;;;;6.65;4.45;;;;;;;;;;7329471;19;162694;-17
2022/05/20 05:14:19;;;;;;;6.68;4.63;;;;;;;;;;7327036;19;154021;-17
2022/05/20 05:16:50;;;;;;;5.60;4.70;;;;;;;;;;7328631;19;153537;-16
2022/05/20 05:19:21;;;;;;;6.40;4.80;;;;;;;;;;7328034;19;161812;-16
2022/05/20 05:21:52;;;;;;;5.20;4.32;;;;;;;;;;7331809;19;162252;-16
2022/05/20 05:24:24;;;;;;;7.68;4.38;;;;;;;;;;7329630;19;154180;-17
2022/05/20 05:26:55;;;;;;;6.80;4.80;;;;;;;;;;7329535;19;153883;-18
2022/05/20 05:29:29;;;;;;;7.68;4.57;;;;;;;;;;7328971;19;162180;-17
2022/05/20 05:32:01;;;;;;;5.85;4.75;;;;;;;;;;7328910;19;162388;-17
2022/05/20 05:34:33;;;;;;;7.00;5.00;;;;;;;;;;7326422;19;153993;-17
2022/05/20 05:37:05;;;;;;;7.38;5.25;;;;;;;;;;7329165;19;153608;-16
2022/05/20 05:39:36;;;;;;;8.15;5.10;;;;;;;;;;7327912;19;161857;-17
2022/05/20 05:42:08;;;;;;;9.32;5.88;;;;;;;;;;7328512;19;162547;-18
2022/05/20 05:44:42;;;;;;;8.90;6.13;;;;;;;;;;7328789;19;154242;-17
2022/05/20 05:47:13;;;;;;;13.68;8.00;;;;;;;;;;7332585;19;153577;-17
2022/05/20 05:49:45;;;;;;;20.83;11.18;;;;;;;;;;7328336;19;162016;-17
2022/05/20 05:52:16;;;;;;;42.70;14.93;;;;;;;;;;7328242;19;162529;-17
2022/05/20 05:54:47;;;;;;;98.40;39.30;;;;;;;;;;7328646;19;154075;-17
2022/05/20 05:57:18;;;;;;;171.23;66.28;;;;;;;;;;7327081;19;153620;-17
2022/05/20 05:59:52;;;;;;;187.30;80.15;;;;;;;;;;7326411;19;162164;-17
2022/05/20 06:02:24;;;;;;;159.68;69.93;;;;;;;;;;7327792;19;162443;-18
2022/05/20 06:04:55;;;;;;;177.02;76.55;;;;;;;;;;7328371;19;154313;-18
2022/05/20 06:07:26;;;;;;;141.48;62.20;;;;;;;;;;7328153;19;153918;-18
2022/05/20 06:09:58;;;;;;;156.43;64.55;;;;;;;;;;7324964;19;161700;-18
2022/05/20 06:12:31;;;;;;;141.45;64.03;;;;;;;;;;7327572;19;162416;-18
2022/05/20 06:15:09;;;;;;;154.00;66.70;;;;;;;;;;7328132;19;154280;-18
2022/05/20 06:17:40;;;;;;;147.30;62.63;;;;;;;;;;7327919;19;153676;-18
2022/05/20 06:20:13;;;;;;;139.52;63.33;;;;;;;;;;7333124;19;161983;-18
2022/05/20 06:22:44;;;;;;;138.43;59.20;;;;;;;;;;7334181;19;162383;-18
2022/05/20 06:25:16;;;;;;;135.15;56.15;;;;;;;;;;7334530;19;153822;-17
2022/05/20 06:27:48;;;;;;;125.53;55.50;;;;;;;;;;7334758;19;153802;-18
2022/05/20 06:30:23;;;;;;;122.72;54.72;;;;;;;;;;7334027;19;162088;-18
2022/05/20 06:32:54;;;;;;;136.13;57.08;;;;;;;;;;7333943;19;162550;-18
2022/05/20 06:40:55;;;;;;;104.50;48.60;;;;;;;;;;7334065;19;162232;-17
2022/05/20 06:43:27;;;;;;;101.38;49.25;;;;;;;;;;7333052;19;162193;-17
2022/05/20 06:46:03;;;;;;;120.35;51.45;;;;;;;;;;7334015;19;153949;-17
2022/05/20 06:48:45;;;;;;;96.60;46.55;;;;;;;;;;7334023;19;153671;-17
2022/05/20 06:51:21;;;;;;;95.18;46.28;;;;;;;;;;7333596;19;161745;-17
2022/05/20 06:53:54;;;;;;;101.45;47.45;;;;;;;;;;7332584;19;162527;-17
2022/05/20 06:56:27;;;;;;;;;;;;;;;;;;7334407;19;154091;-17
2022/05/20 06:58:59;;;;;;;94.75;45.35;;;;;;;;;;7333789;19;153393;-18
2022/05/20 07:01:33;;;;;;;95.30;42.73;;;;;;;;;;7333165;19;161798;-17
2022/05/20 07:04:05;;;;;;;93.65;45.55;;;;;;;;;;7332010;19;162591;-17
2022/05/20 07:06:36;;;;;;;88.07;43.85;;;;;;;;;;7333656;19;154271;-16
2022/05/20 07:09:08;;;;;;;89.70;41.78;;;;;;;;;;7331742;19;153606;-17
2022/05/20 07:11:40;;;;;;;85.87;37.87;;;;;;;;;;7332907;19;161850;-17
2022/05/20 07:14:11;;;;;;;66.13;31.33;;;;;;;;;;7330505;19;162236;-17
2022/05/20 07:16:45;;;;;;;58.63;28.67;;;;;;;;;;7333022;19;154157;-17
2022/05/20 07:19:17;;;;;;;51.38;24.73;;;;;;;;;;7333316;19;153616;-17
2022/05/20 07:21:48;;;;;;;51.30;25.45;;;;;;;;;;7336169;19;161827;-17
2022/05/20 07:24:20;;;;;;;52.22;26.35;;;;;;;;;;7332278;19;162262;-17
2022/05/20 07:26:51;;;;;;;54.13;27.75;;;;;;;;;;7333095;19;153986;-17
2022/05/20 07:29:22;;;;;;;56.22;27.90;;;;;;;;;;7329870;19;153622;-17
2022/05/20 07:31:56;;;;;;;67.90;29.30;;;;;;;;;;7332229;19;161842;-18
2022/05/20 07:34:27;;;;;;;54.67;27.33;;;;;;;;;;7331271;19;162706;-17
2022/05/20 07:36:59;;;;;;;58.45;29.15;;;;;;;;;;7331412;19;154191;-16
2022/05/20 07:39:30;;;;;;;63.95;31.90;;;;;;;;;;7333289;19;153540;-17
2022/05/20 07:42:02;;;;;;;70.65;32.20;;;;;;;;;;7336638;19;161911;-17
2022/05/20 07:44:35;;;;;;;60.28;31.08;;;;;;;;;;7334775;19;162455;-17
2022/05/20 07:47:10;;;;;;;62.85;29.30;;;;;;;;;;7333894;19;154019;-18
2022/05/20 07:49:41;;;;;;;58.75;30.63;;;;;;;;;;7334515;19;153893;-18
2022/05/20 07:53:19;;;;;;;56.47;30.00;;;;;;;;;;7331795;19;162730;-18
2022/05/20 07:55:09;;;;;;;57.13;29.60;;;;;;;;;;7329988;19;162277;-21
2022/05/20 07:57:42;;;;;;;66.43;31.58;;;;;;;;;;7331933;19;153932;-28
2022/05/20 08:00:15;;;;;;;60.08;30.25;;;;;;;;;;7331837;19;153801;-18
2022/05/20 08:02:50;;;;;;;59.15;29.50;;;;;;;;;;7330358;19;161938;-17
2022/05/20 08:05:21;;;;;;;60.35;30.20;;;;;;;;;;7330346;19;162614;-18
2022/05/20 08:07:53;;;;;;;54.60;28.70;;;;;;;;;;7331274;19;154189;-18
2022/05/20 08:10:25;;;;;;;60.53;31.00;;;;;;;;;;7331568;19;153329;-18
2022/05/20 08:12:56;;;;;;;;;;;;;;;;;;7333805;19;162138;-22
2022/05/20 08:15:29;;;;;;;51.80;27.60;;;;;;;;;;7333210;19;162551;-18
2022/05/20 08:18:07;;;;;;;54.08;28.38;;;;;;;;;;7331539;19;154009;-18
2022/05/20 08:20:38;;;;;;;60.88;28.73;;;;;;;;;;7331276;19;153793;-18
2022/05/20 08:23:09;;;;;;;57.50;29.63;;;;;;;;;;7330826;19;161838;-18
2022/05/20 08:25:40;;;;;;;55.72;29.30;;;;;;;;;;7330783;19;162628;-18
2022/05/20 08:28:12;;;;;;;61.45;29.40;;;;;;;;;;7331153;19;154265;-19
2022/05/20 08:30:43;;;;;;;54.83;30.70;;;;;;;;;;7330970;19;153936;-18
2022/05/20 08:33:17;;;;;;;54.63;27.52;;;;;;;;;;7330605;19;162103;-18
2022/05/20 08:35:48;;;;;;;54.95;28.05;;;;;;;;;;7328701;19;162319;-18
2022/05/20 08:38:21;;;;;;;53.13;28.15;;;;;;;;;;7330045;19;154196;-18
2022/05/20 08:40:52;;;;;;;48.83;26.40;;;;;;;;;;7335247;19;154252;-18
2022/05/20 08:43:27;;;;;;;52.88;29.33;;;;;;;;;;7330434;19;162060;-18
2022/05/20 08:45:59;;;;;;;50.10;28.27;;;;;;;;;;7330156;19;162463;-18
2022/05/20 08:48:34;;;;;;;52.95;27.25;;;;;;;;;;7330615;19;154030;-18
2022/05/20 08:51:05;;;;;;;48.88;25.98;;;;;;;;;;7330467;19;153875;-18
2022/05/20 08:53:40;;;;;;;48.30;27.10;;;;;;;;;;7330158;19;162111;-18
2022/05/20 08:56:15;;;;;;;53.05;28.40;;;;;;;;;;7327745;19;162365;-18
2022/05/20 08:58:53;;;;;;;46.22;25.77;;;;;;;;;;7330285;19;154068;-18
2022/05/20 09:01:34;;;;;;;53.75;26.88;;;;;;;;;;7330058;19;153616;-17
2022/05/20 09:04:09;;;;;;;46.75;27.27;;;;;;;;;;7329677;19;161835;-18
2022/05/20 09:06:42;;;;;;;51.00;27.45;;;;;;;;;;7329721;19;162474;-18
2022/05/20 09:09:16;;;;;;;46.60;25.33;;;;;;;;;;7328424;19;154308;-18
2022/05/20 09:11:56;;;;;;;44.03;25.63;;;;;;;;;;7334273;19;153792;-18
2022/05/20 09:17:18;;;;;;;41.90;24.73;;;;;;;;;;7328033;19;162374;-18
2022/05/20 09:20:01;;;;;;;44.53;24.95;;;;;;;;;;7329597;19;154322;-18
2022/05/20 09:22:35;;;;;;;48.38;25.27;;;;;;;;;;7329662;19;153603;-18
2022/05/20 09:25:21;;;;;;;49.90;25.90;;;;;;;;;;7327020;19;161909;-18
2022/05/20 09:27:52;;;;;;;49.40;26.63;;;;;;;;;;7332965;19;162659;-18
2022/05/20 09:30:26;;;;;;;47.80;26.45;;;;;;;;;;7331587;19;154089;-17
2022/05/20 09:33:15;;;;;;;47.22;25.90;;;;;;;;;;7329292;19;153621;-17
2022/05/20 09:36:01;;;;;;;41.35;24.80;;;;;;;;;;7326873;19;161576;-18
2022/05/20 09:38:41;;;;;;;45.95;25.20;;;;;;;;;;7328564;19;162405;-18
2022/05/20 09:41:16;;;;;;;;;;;;;;;;;;7331804;19;154004;-18
2022/05/20 09:43:58;;;;;;;42.08;23.83;;;;;;;;;;7331474;19;153481;-18
2022/05/20 09:46:34;;;;;;;44.03;24.00;;;;;;;;;;7328737;19;161907;-17
2022/05/20 09:49:09;;;;;;;43.53;24.05;;;;;;;;;;7328397;19;162611;-17
2022/05/20 09:51:51;;;;;;;45.65;23.92;;;;;;;;;;7328679;19;154142;-17
2022/05/20 09:54:26;;;;;;;39.42;24.35;;;;;;;;;;7333627;19;153666;-17
2022/05/20 09:57:09;;;;;;;41.20;24.20;;;;;;;;;;7332133;19;161750;-17
2022/05/20 09:59:52;;;;;;;41.33;24.50;;;;;;;;;;7334953;19;162819;-17
2022/05/20 10:02:28;;;;;;;42.22;23.50;;;;;;;;;;7335380;19;154030;-17
2022/05/20 10:05:07;;;;;;;42.97;24.17;;;;;;;;;;7335391;19;153621;-17
2022/05/20 10:08:01;;;;;;;46.25;23.65;;;;;;;;;;7334660;19;162129;-18
2022/05/20 10:10:43;;;;;;;41.67;23.60;;;;;;;;;;7334578;19;162386;-18
2022/05/20 10:13:28;;;;;;;41.05;22.70;;;;;;;;;;7335191;19;154079;-19
2022/05/20 10:16:10;;;;;;;38.42;22.45;;;;;;;;;;7334585;19;153567;-17
2022/05/20 10:18:50;;;;;;;40.78;22.67;;;;;;;;;;7334549;19;162036;-18
2022/05/20 10:21:32;;;;;;;41.28;23.13;;;;;;;;;;7334290;19;162391;-18
2022/05/20 10:24:17;;;;;;;36.25;21.50;;;;;;;;;;7334822;19;154267;-18
2022/05/20 10:26:56;;;;;;;42.15;22.17;;;;;;;;;;7338999;19;153758;-17
2022/05/20 10:32:39;;;;;;;37.75;23.33;;;;;;;;;;7334253;19;162620;-18
2022/05/20 10:35:13;;;;;;;38.17;22.30;;;;;;;;;;7334598;19;154279;-17
2022/05/20 10:38:06;;;;;;;38.35;21.27;;;;;;;;;;7332266;19;153715;-18
2022/05/20 10:40:53;;;;;;;38.08;22.10;;;;;;;;;;7333833;19;161936;-17
2022/05/20 10:48:34;;;;;;;38.38;21.85;;;;;;;;;;7331353;19;162217;-19
2022/05/20 10:49:31;;;;;;;20.30;13.35;;;;;;;;;;7333764;19;153676;-20
2022/05/20 10:52:11;;;;;;;17.02;9.48;;;;;;;;;;7337383;19;161793;-18
2022/05/20 10:55:11;;;;;;;17.17;8.50;;;;;;;;;;7334594;19;163093;-17
2022/05/20 10:58:09;;;;;;;14.50;8.25;;;;;;;;;;7333923;19;154795;-17
2022/05/20 11:00:50;;;;;;;11.55;7.80;;;;;;;;;;7331503;19;153661;-18
2022/05/20 11:03:58;;;;;;;12.65;8.15;;;;;;;;;;7335761;19;162035;-16
2022/05/20 11:07:02;;;;;;;15.10;8.30;;;;;;;;;;7332257;19;162160;-18
2022/05/20 11:09:41;;;;;;;11.15;7.53;;;;;;;;;;7335038;19;154326;-17
2022/05/20 11:12:23;;;;;;;13.05;7.35;;;;;;;;;;7336047;19;153591;-18
2022/05/20 11:15:16;;;;;;;13.55;7.80;;;;;;;;;;7330924;19;162242;-18
2022/05/20 11:18:14;;;;;;;11.60;7.15;;;;;;;;;;7327651;19;162381;-17
2022/05/20 11:21:24;;;;;;;13.88;6.95;;;;;;;;;;7336556;19;154534;-17
2022/05/20 11:24:09;;;;;;;12.52;6.97;;;;;;;;;;7328828;19;153959;-18
2022/05/20 11:27:02;;;;;;;10.68;6.72;;;;;;;;;;7336572;19;161781;-18
2022/05/20 11:29:56;;;;;;;;;;;;;;;;;;7333548;19;162434;-18
2022/05/20 11:32:43;;;;;;;13.67;7.17;;;;;;;;;;7334114;19;154195;-17
2022/05/20 11:35:27;;;;;;;11.65;6.57;;;;;;;;;;7332460;19;153442;-19
2022/05/20 11:38:15;;;;;;;9.27;5.85;;;;;;;;;;7330002;19;162093;-18
2022/05/20 11:40:59;;;;;;;9.68;5.85;;;;;;;;;;7336310;19;162491;-18
2022/05/20 11:43:51;;;;;;;9.07;5.20;;;;;;;;;;7337587;19;154185;-18
2022/05/20 11:46:35;;;;;;;9.93;6.03;;;;;;;;;;7333480;19;153569;-18
2022/05/20 11:49:22;;;;;;;8.57;5.00;;;;;;;;;;7331941;19;161939;-19
2022/05/20 11:52:14;;;;;;;10.10;5.03;;;;;;;;;;7331967;19;162746;-18
2022/05/20 11:54:50;;;;;;;10.27;4.53;;;;;;;;;;7334908;19;154123;-20
2022/05/20 11:57:27;;;;;;;9.27;5.40;;;;;;;;;;7331534;19;153817;-18
2022/05/20 12:00:04;;;;;;;7.80;5.00;;;;;;;;;;7331873;19;161844;-18
2022/05/20 12:02:39;;;;;;;7.10;4.72;;;;;;;;;;7334391;19;162477;-18
2022/05/20 12:05:17;;;;;;;8.23;4.45;;;;;;;;;;7332042;19;154175;-18
2022/05/20 12:07:48;;;;;;;8.77;4.65;;;;;;;;;;7335911;19;153651;-18
2022/05/20 12:10:48;;;;;;;7.13;4.47;;;;;;;;;;7332286;19;161785;-18
2022/05/20 12:13:23;;;;;;;6.57;4.05;;;;;;;;;;7333758;19;162352;-19
2022/05/20 12:16:14;;;;;;;6.78;4.53;;;;;;;;;;7331872;19;154853;-19
2022/05/20 12:24:41;;;;;;;8.18;4.60;;;;;;;;;;7333332;19;162590;-18
2022/05/20 12:27:38;;;;;;;6.40;3.63;;;;;;;;;;7331442;19;154069;-19
2022/05/20 12:30:32;;;;;;;5.60;3.67;;;;;;;;;;7328094;19;154052;-18
2022/05/20 12:33:03;;;;;;;6.55;4.00;;;;;;;;;;7334950;19;161994;-19
2022/05/20 12:35:35;;;;;;;5.70;3.75;;;;;;;;;;7332528;19;162367;-19
2022/05/20 12:38:27;;;;;;;5.85;3.70;;;;;;;;;;7329298;19;154115;-19
2022/05/20 12:41:18;;;;;;;5.72;4.38;;;;;;;;;;7333525;19;153765;-19
2022/05/20 12:44:01;;;;;;;6.28;3.63;;;;;;;;;;7330357;19;162004;-18
2022/05/20 12:46:59;;;;;;;7.78;4.18;;;;;;;;;;7329106;19;162423;-19
2022/05/20 12:49:35;;;;;;;8.75;3.75;;;;;;;;;;7333409;19;153803;-18
2022/05/20 12:52:14;;;;;;;7.38;3.58;;;;;;;;;;7330260;19;153692;-17
2022/05/20 12:54:55;;;;;;;5.03;3.13;;;;;;;;;;7334541;19;162102;-17
2022/05/20 12:57:29;;;;;;;5.78;3.33;;;;;;;;;;7329938;19;162312;-18
2022/05/20 13:00:02;;;;;;;5.10;3.60;;;;;;;;;;7330346;19;154039;-17
2022/05/20 13:02:38;;;;;;;5.50;3.53;;;;;;;;;;7331586;19;153730;-17
2022/05/20 13:05:20;;;;;;;5.72;3.13;;;;;;;;;;7331511;19;161880;-18
2022/05/20 13:07:54;;;;;;;6.85;3.65;;;;;;;;;;7332835;19;162709;-18
2022/05/20 13:10:35;;;;;;;4.18;3.00;;;;;;;;;;7329583;19;154156;-17
2022/05/20 13:13:10;;;;;;;6.30;3.13;;;;;;;;;;7331362;19;153737;-17
2022/05/20 13:15:43;;;;;;;7.50;4.18;;;;;;;;;;7332132;19;161770;-17
2022/05/20 13:18:20;;;;;;;6.10;3.42;;;;;;;;;;7331229;19;162357;-17
2022/05/20 13:20:54;;;;;;;6.57;4.07;;;;;;;;;;7332324;19;153968;-17
2022/05/20 13:23:29;;;;;;;9.60;4.18;;;;;;;;;;7329838;19;153622;-17
2022/05/20 13:26:03;;;;;;;9.45;4.45;;;;;;;;;;7329461;19;162536;-18
2022/05/20 13:28:36;;;;;;;5.63;3.92;;;;;;;;;;7328513;19;162365;-18
2022/05/20 13:31:08;;;;;;;;;;;;;;;;;;7329999;19;154020;-18
2022/05/20 13:33:43;;;;;;;6.32;3.92;;;;;;;;;;7329991;19;154146;-18
2022/05/20 13:36:17;;;;;;;5.03;4.05;;;;;;;;;;7329170;19;161806;-17
2022/05/20 13:38:53;;;;;;;8.98;4.60;;;;;;;;;;7327290;19;162831;-17
2022/05/20 13:41:30;;;;;;;6.40;4.30;;;;;;;;;;7329233;19;153996;-18
2022/05/20 13:44:04;;;;;;;7.13;4.10;;;;;;;;;;7333383;19;153594;-17
2022/05/20 13:49:23;;;;;;;7.82;4.38;;;;;;;;;;7328574;19;162577;-18
2022/05/20 13:51:57;;;;;;;7.65;3.92;;;;;;;;;;7328467;19;154166;-18
2022/05/20 13:54:34;;;;;;;7.50;4.20;;;;;;;;;;7328777;19;153698;-18
2022/05/20 13:57:14;;;;;;;9.95;4.75;;;;;;;;;;7331172;19;162032;-18
2022/05/20 13:59:46;;;;;;;8.65;4.68;;;;;;;;;;7325731;19;162520;-18
2022/05/20 14:02:21;;;;;;;6.95;4.47;;;;;;;;;;7329790;19;154107;-17
2022/05/20 14:04:56;;;;;;;6.78;4.30;;;;;;;;;;7331739;19;154696;-17
2022/05/20 14:07:35;;;;;;;5.93;3.95;;;;;;;;;;7327938;19;162520;-17
2022/05/20 14:10:15;;;;;;;7.53;4.10;;;;;;;;;;7325530;19;162370;-18
2022/05/20 14:12:55;;;;;;;10.27;5.05;;;;;;;;;;7328214;19;154018;-18
2022/05/20 14:15:41;;;;;;;8.75;4.55;;;;;;;;;;7328099;19;153608;-18
2022/05/20 14:18:24;;;;;;;7.38;4.57;;;;;;;;;;7326443;19;161839;-18
2022/05/20 14:21:01;;;;;;;7.72;4.43;;;;;;;;;;7327701;19;162471;-18
2022/05/20 14:23:46;;;;;;;6.55;4.13;;;;;;;;;;7328032;19;154314;-19
2022/05/20 14:26:23;;;;;;;9.00;4.38;;;;;;;;;;7330787;19;153563;-18
2022/05/20 14:29:06;;;;;;;5.97;4.45;;;;;;;;;;7328282;19;161738;-18
2022/05/20 14:31:43;;;;;;;6.47;4.43;;;;;;;;;;7330623;19;162569;-19
2022/05/20 14:34:17;;;;;;;5.80;4.65;;;;;;;;;;7327630;19;154109;-18
2022/05/20 14:36:48;;;;;;;6.78;4.80;;;;;;;;;;7331718;19;153581;-19
2022/05/20 14:39:22;;;;;;;8.77;4.82;;;;;;;;;;7331570;19;161864;-18
2022/05/20 14:42:09;;;;;;;9.00;4.57;;;;;;;;;;7333588;19;162488;-18
2022/05/20 14:44:54;;;;;;;8.68;4.43;;;;;;;;;;7334271;19;154159;-18
2022/05/20 14:47:28;;;;;;;9.82;4.55;;;;;;;;;;7334105;19;153608;-18
2022/05/20 14:50:05;;;;;;;8.43;4.60;;;;;;;;;;7333625;19;161935;-18
2022/05/20 14:52:45;;;;;;;8.48;4.15;;;;;;;;;;7334610;19;162531;-18
2022/05/20 14:55:18;;;;;;;9.45;4.65;;;;;;;;;;7337243;19;154237;-18
2022/05/20 14:58:03;;;;;;;6.80;4.20;;;;;;;;;;7335011;19;153635;-18
2022/05/20 15:00:37;;;;;;;6.32;4.40;;;;;;;;;;7331154;19;162080;-18
2022/05/20 15:03:11;;;;;;;8.93;4.35;;;;;;;;;;7333464;19;162614;-18
2022/05/20 15:05:44;;;;;;;6.22;4.40;;;;;;;;;;7337318;19;154316;-18
2022/05/20 15:08:16;;;;;;;5.47;4.10;;;;;;;;;;7333105;19;153604;-19
2022/05/20 15:10:56;;;;;;;6.50;4.30;;;;;;;;;;7333293;19;162056;-19
2022/05/20 15:13:29;;;;;;;7.13;3.85;;;;;;;;;;7333153;19;162674;-19
2022/05/20 15:16:03;;;;;;;8.23;4.88;;;;;;;;;;7334802;19;154096;-20
2022/05/20 15:18:34;;;;;;;8.27;3.90;;;;;;;;;;7333356;19;153648;-19
2022/05/20 15:21:11;;;;;;;10.25;4.50;;;;;;;;;;7334045;19;161682;-19
2022/05/20 15:23:46;;;;;;;6.65;4.32;;;;;;;;;;7334242;19;162365;-18
2022/05/20 15:26:25;;;;;;;5.65;4.15;;;;;;;;;;7336644;19;154034;-18
2022/05/20 15:28:57;;;;;;;7.40;4.28;;;;;;;;;;7331992;19;153707;-18
2022/05/20 15:37:05;;;;;;;5.82;4.28;;;;;;;;;;7336249;19;154015;-18
2022/05/20 15:39:41;;;;;;;5.60;4.05;;;;;;;;;;7330739;19;153610;-18
2022/05/20 15:42:14;;;;;;;4.22;3.40;;;;;;;;;;7332496;19;162178;-18
2022/05/20 15:44:46;;;;;;;6.35;4.05;;;;;;;;;;7333052;19;162933;-17
2022/05/20 15:47:20;;;;;;;5.88;3.53;;;;;;;;;;7337291;19;154023;-18
2022/05/20 15:49:51;;;;;;;5.82;3.83;;;;;;;;;;7330807;19;153596;-18
2022/05/20 15:52:27;;;;;;;5.65;3.72;;;;;;;;;;7331168;19;161845;-18
2022/05/20 15:55:02;;;;;;;6.38;4.03;;;;;;;;;;7331985;19;163421;-19